Time;durP1;ratioP1;P1;durP2;ratioP2;P2;SDS_P1;SDS_P2;PMS_P1;PMS_P2;Temp;Humidity;BMP_temperature;BMP_pressure;BME280_temperature;BME280_humidity;BME280_pressure;Samples;Min_cycle;Max_cycle;Signal;HPM_P1;HPM_P2
2022/07/18 00:01:06;;;;;;;;;;;;;;;23.80;33.34;96440.38;10499148;28;1867;-73
2022/07/18 00:06:06;;;;;;;;;;;;;;;23.80;33.40;96443.78;10520838;28;1909;-70
2022/07/18 00:11:07;;;;;;;;;;;;;;;23.78;33.27;96443.25;10519292;28;1985;-72
2022/07/18 00:16:07;;;;;;;;;;;;;;;23.76;33.40;96437.47;10501416;28;1856;-73
2022/07/18 00:21:08;;;;;;;;;;;;;;;23.77;33.28;96444.34;10518162;28;1872;-74
2022/07/18 00:26:08;;;;;;;;;;;;;;;23.73;33.61;96443.31;10498445;28;1788;-70
2022/07/18 00:31:08;;;;;;;;;;;;;;;23.72;33.61;96441.72;10511361;28;1914;-73
2022/07/18 00:36:13;;;;;;;;;;;;;;;23.73;33.70;96439.88;10486026;28;2334;-72
2022/07/18 00:41:14;;;;;;;;;;;;;;;23.73;33.46;96437.22;10511515;28;2038;-74
2022/07/18 00:46:15;;;;;;;;;;;;;;;23.70;33.72;96446.50;10519343;28;1978;-72
2022/07/18 00:51:16;;;;;;;;;;;;;;;23.70;33.71;96433.28;10517527;28;1993;-72
2022/07/18 00:56:17;;;;;;;;;;;;;;;23.69;33.51;96431.72;10499570;28;2001;-73
2022/07/18 01:06:38;;;;;;;;;;;;;;;23.68;33.97;96432.75;10506662;28;2033;-72
2022/07/18 01:11:38;;;;;;;;;;;;;;;23.65;34.03;96422.75;10526292;28;2030;-72
2022/07/18 01:16:42;;;;;;;;;;;;;;;23.68;33.95;96422.19;10510820;28;1905;-73
2022/07/18 01:21:45;;;;;;;;;;;;;;;23.67;33.95;96425.09;10526576;28;1956;-73
2022/07/18 01:26:57;;;;;;;;;;;;;;;23.66;33.87;96423.53;10521497;28;1940;-71
2022/07/18 01:32:07;;;;;;;;;;;;;;;23.64;34.02;96429.09;10529229;28;2227;-73
2022/07/18 01:37:09;;;;;;;;;;;;;;;23.65;34.21;96432.53;10523300;28;1883;-73
2022/07/18 01:42:10;;;;;;;;;;;;;;;23.64;33.89;96425.69;10509457;28;2270;-72
2022/07/18 01:47:11;;;;;;;;;;;;;;;23.65;34.10;96429.88;10518730;28;2252;-73
2022/07/18 01:52:11;;;;;;;;;;;;;;;23.60;34.24;96428.06;10522006;28;1949;-72
2022/07/18 01:57:14;;;;;;;;;;;;;;;23.60;33.95;96437.84;10520062;28;1956;-74
2022/07/18 02:02:14;;;;;;;;;;;;;;;23.59;34.04;96433.63;10511442;28;2023;-74
2022/07/18 02:07:15;;;;;;;;;;;;;;;23.56;34.01;96426.25;10504455;28;1944;-73
2022/07/18 02:12:15;;;;;;;;;;;;;;;23.56;34.28;96429.69;10518313;28;2106;-71
2022/07/18 02:17:15;;;;;;;;;;;;;;;23.55;34.05;96422.03;10492531;28;1901;-72
2022/07/18 02:22:16;;;;;;;;;;;;;;;23.53;34.17;96424.97;10523364;28;1880;-72
2022/07/18 02:27:16;;;;;;;;;;;;;;;23.52;34.38;96422.56;10523225;28;1971;-74
2022/07/18 02:32:16;;;;;;;;;;;;;;;23.50;34.29;96420.19;10490918;28;2005;-74
2022/07/18 02:37:17;;;;;;;;;;;;;;;23.48;34.49;96417.03;10504089;28;1968;-73
2022/07/18 02:42:17;;;;;;;;;;;;;;;23.48;34.35;96414.41;10521645;28;1955;-73
2022/07/18 02:47:17;;;;;;;;;;;;;;;23.47;34.38;96417.31;10496400;28;2010;-74
2022/07/18 02:52:17;;;;;;;;;;;;;;;23.45;34.64;96425.53;10498829;28;1940;-73
2022/07/18 02:57:18;;;;;;;;;;;;;;;23.43;34.67;96436.38;10510258;28;1936;-75
2022/07/18 03:02:18;;;;;;;;;;;;;;;23.43;34.63;96425.81;10515410;28;1887;-74
2022/07/18 03:07:18;;;;;;;;;;;;;;;23.44;34.91;96430.03;10513282;28;1925;-73
2022/07/18 03:12:19;;;;;;;;;;;;;;;23.42;34.91;96418.16;10513015;28;1909;-73
2022/07/18 03:17:20;;;;;;;;;;;;;;;23.40;35.06;96417.63;10519238;28;1913;-73
2022/07/18 03:22:23;;;;;;;;;;;;;;;23.41;35.01;96432.47;10523837;28;1656;-74
2022/07/18 03:27:24;;;;;;;;;;;;;;;23.39;35.20;96439.84;10516022;28;1459;-72
2022/07/18 03:32:24;;;;;;;;;;;;;;;23.38;35.27;96433.78;10519661;28;1918;-72
2022/07/18 03:37:30;;;;;;;;;;;;;;;23.39;35.31;96450.44;10515890;28;1940;-72
2022/07/18 03:42:30;;;;;;;;;;;;;;;23.38;35.41;96454.16;10519963;28;1999;-72
2022/07/18 03:47:31;;;;;;;;;;;;;;;23.39;35.44;96461.81;10501345;28;1973;-72
2022/07/18 03:52:31;;;;;;;;;;;;;;;23.41;35.37;96466.84;10518273;28;1972;-74
2022/07/18 03:57:32;;;;;;;;;;;;;;;23.38;35.29;96465.53;10503304;28;2042;-74
2022/07/18 04:02:32;;;;;;;;;;;;;;;23.36;35.39;96462.38;10499934;28;2024;-74
2022/07/18 04:07:35;;;;;;;;;;;;;;;23.34;35.89;96463.72;10513449;28;1933;-74
2022/07/18 04:12:43;;;;;;;;;;;;;;;23.34;36.01;96474.28;10512154;28;1975;-73
2022/07/18 04:17:43;;;;;;;;;;;;;;;23.31;36.08;96462.38;10515364;28;2077;-73
2022/07/18 04:22:54;;;;;;;;;;;;;;;23.31;35.88;96464.22;10478379;28;2032;-74
2022/07/18 04:27:56;;;;;;;;;;;;;;;23.30;36.15;96460.00;10510440;28;1917;-74
2022/07/18 04:32:56;;;;;;;;;;;;;;;23.30;36.30;96458.16;10516801;28;1859;-73
2022/07/18 04:37:57;;;;;;;;;;;;;;;23.30;36.32;96460.78;10519172;28;1965;-73
2022/07/18 04:42:57;;;;;;;;;;;;;;;23.30;36.51;96466.09;10498669;28;1945;-74
2022/07/18 04:47:58;;;;;;;;;;;;;;;23.31;36.48;96458.91;10479867;28;2062;-73
2022/07/18 04:52:59;;;;;;;;;;;;;;;23.31;36.70;96458.91;10513670;28;2020;-73
2022/07/18 04:58:00;;;;;;;;;;;;;;;23.32;36.70;96449.97;10514181;28;1933;-74
2022/07/18 05:03:00;;;;;;;;;;;;;;;23.34;36.85;96461.06;10505350;28;1741;-74
2022/07/18 05:08:00;;;;;;;;;;;;;;;23.35;36.79;96454.69;10516533;28;1913;-73
2022/07/18 05:13:01;;;;;;;;;;;;;;;23.37;36.94;96460.50;10514669;28;1830;-72
2022/07/18 05:18:01;;;;;;;;;;;;;;;23.37;36.94;96465.78;10498780;28;1872;-73
2022/07/18 05:23:01;;;;;;;;;;;;;;;23.39;36.99;96455.72;10509285;28;1930;-73
2022/07/18 05:28:02;;;;;;;;;;;;;;;23.39;37.23;96445.94;10498760;28;1897;-73
2022/07/18 05:33:03;;;;;;;;;;;;;;;23.41;37.13;96454.38;10513758;28;1795;-74
2022/07/18 05:38:03;;;;;;;;;;;;;;;23.43;37.30;96454.91;10508004;28;1957;-74
2022/07/18 05:43:03;;;;;;;;;;;;;;;23.46;37.42;96456.22;10507530;28;1765;-72
2022/07/18 05:48:05;;;;;;;;;;;;;;;23.49;37.46;96454.88;10508662;28;1963;-72
2022/07/18 05:53:05;;;;;;;;;;;;;;;23.53;37.22;96463.84;10515640;28;1826;-71
2022/07/18 05:58:06;;;;;;;;;;;;;;;23.56;37.50;96452.69;10510489;28;1886;-71
2022/07/18 06:03:06;;;;;;;;;;;;;;;23.58;37.42;96455.88;10514796;28;1728;-71
2022/07/18 06:08:07;;;;;;;;;;;;;;;23.59;37.72;96447.66;10509701;28;1910;-72
2022/07/18 06:13:07;;;;;;;;;;;;;;;23.62;37.63;96444.44;10507532;28;1914;-73
2022/07/18 06:18:08;;;;;;;;;;;;;;;23.64;37.43;96442.31;10507466;28;1945;-72
2022/07/18 06:23:09;;;;;;;;;;;;;;;23.65;37.31;96443.13;10516927;28;1918;-72
2022/07/18 06:28:09;;;;;;;;;;;;;;;23.70;37.61;96453.69;10499957;28;1926;-72
2022/07/18 06:33:10;;;;;;;;;;;;;;;23.70;37.11;96451.81;10523402;28;1738;-71
2022/07/18 06:38:10;;;;;;;;;;;;;;;23.68;37.54;96453.16;10515121;28;2698;-70
2022/07/18 06:43:11;;;;;;;;;;;;;;;23.65;37.35;96441.28;10519153;28;1816;-72
2022/07/18 06:48:13;;;;;;;;;;;;;;;23.64;37.17;96442.31;10520631;28;1977;-71
2022/07/18 06:53:13;;;;;;;;;;;;;;;23.57;36.24;96449.81;10517502;28;1815;-74
2022/07/18 06:58:14;;;;;;;;;;;;;;;23.52;36.40;96455.13;10518987;28;1800;-73
2022/07/18 07:03:15;;;;;;;;;;;;;;;23.49;35.85;96460.97;10502896;28;1706;-74
2022/07/18 07:08:15;;;;;;;;;;;;;;;23.68;35.91;96455.81;10498185;28;1933;-72
2022/07/18 07:13:15;;;;;;;;;;;;;;;23.89;36.09;96465.97;10481798;28;2138;-73
2022/07/18 07:18:19;;;;;;;;;;;;;;;24.09;36.20;96470.34;10523711;28;1761;-73
2022/07/18 07:23:20;;;;;;;;;;;;;;;24.24;35.52;96467.53;10498002;28;1798;-72
2022/07/18 07:28:20;;;;;;;;;;;;;;;24.36;34.91;96469.81;10496155;28;1917;-73
2022/07/18 07:33:20;;;;;;;;;;;;;;;24.45;34.93;96473.41;10516164;28;1846;-73
2022/07/18 07:38:27;;;;;;;;;;;;;;;24.50;34.78;96470.72;10516621;28;2219;-73
2022/07/18 07:43:27;;;;;;;;;;;;;;;24.61;35.01;96466.88;10482671;28;1799;-74
2022/07/18 07:48:28;;;;;;;;;;;;;;;24.69;35.09;96472.38;10498427;28;1988;-74
2022/07/18 07:53:28;;;;;;;;;;;;;;;24.77;35.64;96468.34;10498519;28;1826;-74
2022/07/18 07:58:28;;;;;;;;;;;;;;;24.80;35.67;96460.59;10517164;28;1850;-74
2022/07/18 08:03:29;;;;;;;;;;;;;;;24.83;35.43;96459.25;10469420;28;1952;-73
2022/07/18 08:08:32;;;;;;;;;;;;;;;24.81;35.00;96461.41;10483537;28;1914;-74
2022/07/18 08:13:32;;;;;;;;;;;;;;;24.89;35.36;96458.13;10512267;28;1947;-74
2022/07/18 08:18:32;;;;;;;;;;;;;;;24.88;35.20;96457.31;10492341;28;1789;-73
2022/07/18 08:23:33;;;;;;;;;;;;;;;24.94;35.46;96456.19;10517061;28;1657;-73
2022/07/18 08:28:33;;;;;;;;;;;;;;;24.97;35.06;96450.31;10512679;28;1984;-73
2022/07/18 08:33:33;;;;;;;;;;;;;;;24.98;34.67;96446.59;10513499;28;1982;-73
2022/07/18 08:38:37;;;;;;;;;;;;;;;24.94;34.07;96444.78;10492812;28;2273;-71
2022/07/18 08:43:38;;;;;;;;;;;;;;;24.98;34.53;96448.44;10512233;28;1793;-72
2022/07/18 08:48:40;;;;;;;;;;;;;;;24.93;33.36;96448.53;10512685;28;2016;-71
2022/07/18 08:53:40;;;;;;;;;;;;;;;24.85;32.00;96444.63;10508862;28;1844;-73
2022/07/18 08:58:40;;;;;;;;;;;;;;;24.84;31.59;96448.34;10495680;28;1789;-71
2022/07/18 09:03:41;;;;;;;;;;;;;;;24.87;31.07;96447.00;10516529;28;1792;-73
2022/07/18 09:08:58;;;;;;;;;;;;;;;24.94;32.95;96439.47;10528482;28;3001;-72
2022/07/18 09:13:58;;;;;;;;;;;;;;;25.00;33.09;96443.66;10490463;28;1800;-72
2022/07/18 09:18:59;;;;;;;;;;;;;;;25.02;33.29;96433.53;10494889;28;1860;-72
2022/07/18 09:24:00;;;;;;;;;;;;;;;25.03;32.96;96432.47;10482872;28;1799;-71
2022/07/18 09:29:00;;;;;;;;;;;;;;;25.04;33.20;96434.03;10518336;28;2014;-72
2022/07/18 09:34:01;;;;;;;;;;;;;;;25.14;33.16;96433.94;10523477;28;1804;-74
2022/07/18 09:39:03;;;;;;;;;;;;;;;25.11;33.49;96429.19;10501325;28;2303;-72
2022/07/18 09:44:13;;;;;;;;;;;;;;;25.15;33.48;96435.50;10521542;28;1713;-72
2022/07/18 09:49:13;;;;;;;;;;;;;;;25.18;33.60;96437.59;10520644;28;1953;-73
2022/07/18 09:54:14;;;;;;;;;;;;;;;25.16;33.13;96444.25;10520580;28;1839;-72
2022/07/18 09:59:14;;;;;;;;;;;;;;;25.16;32.63;96439.75;10521739;28;1820;-71
2022/07/18 10:04:14;;;;;;;;;;;;;;;25.15;32.33;96429.38;10503283;28;1748;-72
2022/07/18 10:09:15;;;;;;;;;;;;;;;25.15;32.48;96424.88;10496563;28;1913;-71
2022/07/18 10:14:15;;;;;;;;;;;;;;;25.15;32.33;96419.56;10504402;28;1804;-71
2022/07/18 10:19:16;;;;;;;;;;;;;;;25.19;32.92;96431.19;10500892;28;1855;-72
2022/07/18 10:24:16;;;;;;;;;;;;;;;25.26;33.24;96426.31;10504784;28;1801;-71
2022/07/18 10:29:17;;;;;;;;;;;;;;;25.24;33.39;96425.81;10505520;28;1918;-72
2022/07/18 10:34:17;;;;;;;;;;;;;;;25.28;33.17;96418.06;10522606;28;1860;-73
2022/07/18 10:39:23;;;;;;;;;;;;;;;25.30;33.08;96421.22;10502679;28;1764;-71
2022/07/18 10:44:23;;;;;;;;;;;;;;;25.36;33.49;96420.06;10524821;28;1799;-71
2022/07/18 10:49:44;;;;;;;;;;;;;;;25.36;33.50;96426.19;10539161;28;1900;-72
2022/07/18 10:54:51;;;;;;;;;;;;;;;25.39;33.63;96422.16;10513299;28;1853;-71
2022/07/18 10:59:59;;;;;;;;;;;;;;;25.37;33.47;96416.34;10519195;28;1810;-71
2022/07/18 11:04:59;;;;;;;;;;;;;;;25.39;33.42;96412.31;10493061;28;1775;-70
2022/07/18 11:09:59;;;;;;;;;;;;;;;25.41;33.67;96406.78;10505091;28;1983;-70
2022/07/18 11:15:04;;;;;;;;;;;;;;;25.42;33.72;96403.81;10502011;28;1801;-70
2022/07/18 11:20:23;;;;;;;;;;;;;;;25.42;33.63;96403.81;10514260;28;1835;-69
2022/07/18 11:25:25;;;;;;;;;;;;;;;25.45;33.70;96395.28;10513085;28;1950;-70
2022/07/18 11:30:26;;;;;;;;;;;;;;;25.46;34.08;96388.91;10518444;28;1909;-70
2022/07/18 11:35:26;;;;;;;;;;;;;;;25.48;34.24;96402.66;10526380;28;1864;-73
2022/07/18 11:40:27;;;;;;;;;;;;;;;25.53;33.76;96378.69;10481376;28;1851;-71
2022/07/18 11:45:28;;;;;;;;;;;;;;;25.53;33.94;96384.00;10495124;28;1875;-72
2022/07/18 11:50:37;;;;;;;;;;;;;;;25.56;33.86;96379.97;10519171;28;1985;-71
2022/07/18 11:55:38;;;;;;;;;;;;;;;25.55;34.01;96375.75;10509366;28;2110;-71
2022/07/18 12:00:43;;;;;;;;;;;;;;;25.56;34.01;96377.31;10514417;28;2179;-71
2022/07/18 12:05:48;;;;;;;;;;;;;;;25.60;34.21;96362.38;10514575;28;1910;-71
2022/07/18 12:11:06;;;;;;;;;;;;;;;25.57;34.31;96365.63;10517441;28;1974;-71
2022/07/18 12:16:07;;;;;;;;;;;;;;;25.61;34.02;96363.97;10496973;28;1811;-71
2022/07/18 12:21:10;;;;;;;;;;;;;;;25.63;34.25;96361.81;10516310;28;1902;-71
2022/07/18 12:26:31;;;;;;;;;;;;;;;25.63;34.13;96356.50;10515788;28;1847;-71
2022/07/18 12:31:38;;;;;;;;;;;;;;;25.63;34.34;96349.34;10518598;28;1950;-70
2022/07/18 12:36:54;;;;;;;;;;;;;;;25.64;34.17;96342.94;10518488;28;2246;-70
2022/07/18 12:41:55;;;;;;;;;;;;;;;25.67;34.36;96346.88;10516861;28;1915;-70
2022/07/18 12:46:55;;;;;;;;;;;;;;;25.67;34.27;96342.38;10498960;28;1917;-70
2022/07/18 12:51:55;;;;;;;;;;;;;;;25.68;34.19;96343.13;10515665;28;1910;-71
2022/07/18 12:56:56;;;;;;;;;;;;;;;25.70;33.97;96336.44;10516061;28;1878;-70
2022/07/18 13:01:56;;;;;;;;;;;;;;;25.74;34.53;96334.78;10526070;28;1902;-71
2022/07/18 13:06:57;;;;;;;;;;;;;;;25.78;34.17;96332.34;10521563;28;1830;-70
2022/07/18 13:12:00;;;;;;;;;;;;;;;25.74;34.48;96334.78;10486879;28;1914;-70
2022/07/18 13:17:02;;;;;;;;;;;;;;;25.76;34.45;96329.97;10524730;28;1839;-70
2022/07/18 13:22:03;;;;;;;;;;;;;;;25.77;34.45;96330.75;10523453;28;1892;-70
2022/07/18 13:27:04;;;;;;;;;;;;;;;25.79;34.83;96328.59;10525825;28;1825;-69
2022/07/18 13:32:05;;;;;;;;;;;;;;;25.80;34.51;96327.53;10508795;28;1902;-69
2022/07/18 13:37:05;;;;;;;;;;;;;;;25.79;34.33;96329.41;10505483;28;1908;-70
2022/07/18 13:42:07;;;;;;;;;;;;;;;25.81;34.00;96327.25;10502002;28;1876;-70
2022/07/18 13:47:07;;;;;;;;;;;;;;;25.79;34.21;96321.44;10536620;28;1764;-69
2022/07/18 13:52:08;;;;;;;;;;;;;;;25.79;34.60;96321.44;10502131;28;1977;-69
2022/07/18 13:57:09;;;;;;;;;;;;;;;25.86;34.63;96312.28;10520980;28;1814;-70
2022/07/18 14:02:09;;;;;;;;;;;;;;;25.88;34.87;96313.56;10519768;28;1796;-70
2022/07/18 14:07:11;;;;;;;;;;;;;;;25.86;34.22;96312.28;10520064;28;1769;-69
2022/07/18 14:12:12;;;;;;;;;;;;;;;25.86;34.32;96318.41;10506851;28;1975;-68
2022/07/18 14:17:13;;;;;;;;;;;;;;;25.87;34.71;96308.53;10519730;28;1854;-67
2022/07/18 14:22:15;;;;;;;;;;;;;;;25.93;34.31;96310.03;10518184;28;1749;-68
2022/07/18 14:27:15;;;;;;;;;;;;;;;25.90;33.97;96313.28;10493692;28;1872;-69
2022/07/18 14:32:16;;;;;;;;;;;;;;;25.76;34.31;96298.09;10521788;28;1988;-68
2022/07/18 14:37:16;;;;;;;;;;;;;;;25.64;33.42;96299.66;10501155;28;1931;-68
2022/07/18 14:42:16;;;;;;;;;;;;;;;25.55;33.66;96312.03;10521459;28;1986;-67
2022/07/18 14:47:16;;;;;;;;;;;;;;;25.45;33.39;96307.69;10517574;28;1761;-68
2022/07/18 14:52:17;;;;;;;;;;;;;;;25.38;33.31;96311.75;10519020;28;1981;-68
2022/07/18 14:57:17;;;;;;;;;;;;;;;25.32;33.29;96297.00;10502493;28;1845;-68
2022/07/18 15:02:18;;;;;;;;;;;;;;;25.25;32.91;96296.56;10525491;28;1847;-68
2022/07/18 15:07:18;;;;;;;;;;;;;;;25.19;33.03;96292.44;10497604;28;1936;-68
2022/07/18 15:12:19;;;;;;;;;;;;;;;25.16;33.11;96291.16;10517259;28;1905;-68
2022/07/18 15:17:19;;;;;;;;;;;;;;;25.13;33.36;96289.06;10505981;28;2015;-68
2022/07/18 15:22:21;;;;;;;;;;;;;;;25.10;33.22;96291.53;10515459;28;1881;-67
2022/07/18 15:27:21;;;;;;;;;;;;;;;25.09;33.39;96292.59;10522118;28;1409;-68
2022/07/18 15:32:22;;;;;;;;;;;;;;;25.10;33.78;96296.84;10523803;28;1902;-69
2022/07/18 15:37:26;;;;;;;;;;;;;;;25.07;33.42;96292.09;10521827;28;1473;-67
2022/07/18 15:42:26;;;;;;;;;;;;;;;25.04;33.61;96280.97;10499686;28;1883;-68
2022/07/18 15:47:31;;;;;;;;;;;;;;;25.02;33.49;96277.03;10512438;28;1815;-68
2022/07/18 15:52:35;;;;;;;;;;;;;;;25.00;33.58;96273.88;10521585;28;1991;-68
2022/07/18 15:57:35;;;;;;;;;;;;;;;25.01;33.50;96259.56;10515641;28;1835;-69
2022/07/18 16:02:36;;;;;;;;;;;;;;;24.98;33.67;96260.94;10501635;28;1980;-67
2022/07/18 16:07:36;;;;;;;;;;;;;;;24.98;33.51;96262.78;10517799;28;2072;-68
2022/07/18 16:12:36;;;;;;;;;;;;;;;24.98;33.54;96260.13;10502079;28;1906;-67
2022/07/18 16:17:37;;;;;;;;;;;;;;;24.98;33.75;96263.56;10519361;28;1894;-68
2022/07/18 16:22:38;;;;;;;;;;;;;;;24.97;33.78;96263.88;10506029;28;1854;-67
2022/07/18 16:27:40;;;;;;;;;;;;;;;24.93;33.37;96257.56;10516024;28;2183;-68
2022/07/18 16:32:40;;;;;;;;;;;;;;;24.97;33.51;96255.91;10512540;28;2013;-69
2022/07/18 16:37:44;;;;;;;;;;;;;;;24.88;33.23;96253.13;10518106;28;1780;-68
2022/07/18 16:42:45;;;;;;;;;;;;;;;24.92;33.46;96248.03;10510790;28;1819;-68
2022/07/18 16:47:46;;;;;;;;;;;;;;;24.94;33.27;96240.56;10497544;28;1792;-68
2022/07/18 16:52:47;;;;;;;;;;;;;;;24.96;33.32;96241.06;10513597;28;1964;-68
2022/07/18 16:57:48;;;;;;;;;;;;;;;24.97;33.00;96245.31;10497313;28;1689;-69
2022/07/18 17:02:49;;;;;;;;;;;;;;;24.96;32.74;96235.75;10499460;28;2252;-68
2022/07/18 17:07:49;;;;;;;;;;;;;;;24.94;32.64;96243.22;10512233;28;2063;-69
2022/07/18 17:12:49;;;;;;;;;;;;;;;24.93;32.42;96246.97;10489448;28;2304;-67
2022/07/18 17:17:49;;;;;;;;;;;;;;;24.92;32.63;96242.72;10511797;28;2239;-67
2022/07/18 17:22:55;;;;;;;;;;;;;;;24.93;32.39;96239.81;10510280;28;1693;-68
2022/07/18 17:27:55;;;;;;;;;;;;;;;25.09;32.29;96240.34;10513024;28;1798;-68
2022/07/18 17:32:56;;;;;;;;;;;;;;;25.21;32.09;96250.47;10513048;28;2008;-68
2022/07/18 17:37:56;;;;;;;;;;;;;;;25.34;32.14;96242.56;10510808;28;1835;-67
2022/07/18 17:42:57;;;;;;;;;;;;;;;25.46;32.14;96236.81;10516971;28;1944;-68
2022/07/18 17:47:58;;;;;;;;;;;;;;;25.42;32.20;96241.91;10496679;28;1733;-68
2022/07/18 17:52:58;;;;;;;;;;;;;;;25.40;32.20;96240.59;10521960;28;2016;-69
2022/07/18 17:57:59;;;;;;;;;;;;;;;25.38;30.87;96250.72;10533765;28;1922;-69
2022/07/18 18:02:59;;;;;;;;;;;;;;;25.28;30.48;96237.63;10514869;28;1867;-68
2022/07/18 18:08:02;;;;;;;;;;;;;;;25.20;30.80;96238.31;10524323;28;1834;-68
2022/07/18 18:13:03;;;;;;;;;;;;;;;25.18;31.11;96235.94;10522507;28;1917;-69
2022/07/18 18:18:03;;;;;;;;;;;;;;;25.13;30.95;96238.66;10525133;28;1823;-68
2022/07/18 18:23:04;;;;;;;;;;;;;;;25.10;30.30;96233.16;10520532;28;1792;-69
2022/07/18 18:28:04;;;;;;;;;;;;;;;25.04;30.94;96230.59;10521944;28;1931;-69
2022/07/18 18:33:05;;;;;;;;;;;;;;;25.05;30.85;96234.03;10525029;28;1894;-68
2022/07/18 18:38:06;;;;;;;;;;;;;;;25.01;31.04;96236.50;10515994;28;1966;-69
2022/07/18 18:43:06;;;;;;;;;;;;;;;24.95;30.63;96229.69;10519130;28;1809;-67
2022/07/18 18:48:07;;;;;;;;;;;;;;;24.96;31.17;96225.94;10514692;28;1851;-71
2022/07/18 18:53:07;;;;;;;;;;;;;;;24.97;31.07;96232.03;10518330;28;1982;-69
2022/07/18 18:58:08;;;;;;;;;;;;;;;24.95;31.57;96237.66;10502453;28;1847;-69
2022/07/18 19:03:08;;;;;;;;;;;;;;;24.92;32.00;96234.75;10501958;28;1884;-71
2022/07/18 19:08:09;;;;;;;;;;;;;;;24.93;31.29;96237.16;10519213;28;1816;-71
2022/07/18 19:13:09;;;;;;;;;;;;;;;24.93;31.52;96244.31;10499702;28;1906;-70
2022/07/18 19:18:09;;;;;;;;;;;;;;;24.92;31.73;96237.41;10518566;28;1815;-70
2022/07/18 19:23:10;;;;;;;;;;;;;;;24.92;31.64;96242.72;10517323;28;1695;-71
2022/07/18 19:28:10;;;;;;;;;;;;;;;24.92;31.80;96240.88;10514310;28;1840;-71
2022/07/18 19:33:11;;;;;;;;;;;;;;;24.92;32.09;96246.16;10518690;28;1981;-69
2022/07/18 19:38:11;;;;;;;;;;;;;;;24.91;32.10;96241.16;10513472;28;1817;-70
2022/07/18 19:43:13;;;;;;;;;;;;;;;24.90;31.88;96258.13;10514361;28;1739;-70
2022/07/18 19:48:13;;;;;;;;;;;;;;;24.88;31.90;96261.09;10500942;28;1886;-70
2022/07/18 19:53:14;;;;;;;;;;;;;;;24.93;32.05;96257.56;10499258;28;1902;-70
2022/07/18 19:58:15;;;;;;;;;;;;;;;24.88;31.88;96268.25;10493158;28;1895;-70
2022/07/18 20:03:15;;;;;;;;;;;;;;;24.84;31.75;96264.59;10494096;28;1831;-71
2022/07/18 20:08:16;;;;;;;;;;;;;;;24.82;31.68;96264.09;10510000;28;1843;-70
2022/07/18 20:13:16;;;;;;;;;;;;;;;24.79;31.55;96259.38;10512260;28;2125;-70
2022/07/18 20:18:16;;;;;;;;;;;;;;;24.81;31.56;96258.00;10508967;28;1965;-70
2022/07/18 20:23:17;;;;;;;;;;;;;;;24.76;31.71;96262.59;10499149;28;1867;-70
2022/07/18 20:28:17;;;;;;;;;;;;;;;24.75;32.03;96258.38;10510367;28;1913;-70
2022/07/18 20:33:18;;;;;;;;;;;;;;;24.72;31.95;96261.56;10509306;28;1992;-70
2022/07/18 20:38:18;;;;;;;;;;;;;;;24.67;31.93;96259.78;10511952;28;1961;-68
2022/07/18 20:43:18;;;;;;;;;;;;;;;24.64;31.67;96264.88;10502119;28;2043;-70
2022/07/18 20:48:19;;;;;;;;;;;;;;;24.60;31.83;96269.97;10499134;28;2004;-70
2022/07/18 20:53:19;;;;;;;;;;;;;;;24.59;31.82;96267.56;10504997;28;1913;-70
2022/07/18 20:58:20;;;;;;;;;;;;;;;24.56;31.87;96257.56;10504777;28;1882;-70
2022/07/18 21:03:20;;;;;;;;;;;;;;;24.52;31.88;96246.75;10499802;28;1858;-70
2022/07/18 21:08:27;;;;;;;;;;;;;;;24.50;32.14;96258.72;10512058;28;1965;-68
2022/07/18 21:13:28;;;;;;;;;;;;;;;24.49;32.27;96254.47;10491055;28;1898;-69
2022/07/18 21:18:28;;;;;;;;;;;;;;;24.48;32.56;96252.91;10510591;28;2083;-70
2022/07/18 21:23:28;;;;;;;;;;;;;;;24.49;32.28;96251.81;10502921;28;1953;-70
2022/07/18 21:28:29;;;;;;;;;;;;;;;24.45;32.47;96245.50;10499403;28;2132;-70
2022/07/18 21:33:30;;;;;;;;;;;;;;;24.43;32.67;96248.47;10518258;28;1820;-70
2022/07/18 21:38:30;;;;;;;;;;;;;;;24.45;32.69;96246.31;10525724;28;1917;-70
2022/07/18 21:43:30;;;;;;;;;;;;;;;24.41;32.91;96247.94;10519885;28;1957;-69
2022/07/18 21:48:35;;;;;;;;;;;;;;;24.39;33.12;96238.72;10525557;28;1914;-70
2022/07/18 21:53:35;;;;;;;;;;;;;;;24.34;33.43;96234.25;10518699;28;1987;-69
2022/07/18 21:58:35;;;;;;;;;;;;;;;24.29;33.52;96239.66;10524142;28;1800;-70
2022/07/18 22:03:35;;;;;;;;;;;;;;;24.25;33.67;96242.06;10508171;28;2056;-71
2022/07/18 22:08:36;;;;;;;;;;;;;;;24.27;33.89;96243.66;10508138;28;1911;-70
2022/07/18 22:13:37;;;;;;;;;;;;;;;24.19;33.99;96242.44;10521707;28;1811;-69
2022/07/18 22:18:37;;;;;;;;;;;;;;;24.24;34.18;96235.19;10529292;28;1717;-70
2022/07/18 22:23:37;;;;;;;;;;;;;;;24.24;34.11;96235.19;10525788;28;2107;-69
2022/07/18 22:28:37;;;;;;;;;;;;;;;24.20;34.68;96234.19;10520505;28;1923;-69
2022/07/18 22:33:38;;;;;;;;;;;;;;;24.19;34.57;96242.44;10526907;28;1858;-70
2022/07/18 22:38:38;;;;;;;;;;;;;;;24.19;35.05;96240.53;10502823;28;1989;-69
2022/07/18 22:43:38;;;;;;;;;;;;;;;24.21;34.91;96240.28;10508897;28;1941;-70
2022/07/18 22:48:39;;;;;;;;;;;;;;;24.17;35.14;96234.75;10527308;28;1910;-70
2022/07/18 22:53:39;;;;;;;;;;;;;;;24.14;35.38;96232.69;10523380;28;2015;-69
2022/07/18 22:58:44;;;;;;;;;;;;;;;24.16;35.69;96232.38;10526094;28;2130;-69
2022/07/18 23:03:45;;;;;;;;;;;;;;;24.14;35.84;96231.88;10522147;28;1857;-69
2022/07/18 23:08:48;;;;;;;;;;;;;;;24.10;35.88;96223.72;10492302;28;1918;-69
2022/07/18 23:13:48;;;;;;;;;;;;;;;24.05;35.97;96236.25;10525396;28;1861;-70
2022/07/18 23:18:48;;;;;;;;;;;;;;;24.02;36.30;96237.56;10520485;28;1786;-69
2022/07/18 23:23:49;;;;;;;;;;;;;;;23.97;36.34;96231.53;10500979;28;1977;-69
2022/07/18 23:28:50;;;;;;;;;;;;;;;23.89;36.63;96232.94;10519977;28;2004;-70
2022/07/18 23:33:51;;;;;;;;;;;;;;;23.93;36.49;96231.31;10526515;28;1835;-70
2022/07/18 23:38:52;;;;;;;;;;;;;;;23.87;36.71;96224.50;10517829;28;1878;-69
2022/07/18 23:43:52;;;;;;;;;;;;;;;23.86;36.53;96228.25;10517253;28;1870;-70
2022/07/18 23:48:52;;;;;;;;;;;;;;;23.82;36.90;96219.25;10514902;28;1914;-69
2022/07/18 23:53:53;;;;;;;;;;;;;;;23.82;36.80;96216.59;10520383;28;1996;-69
2022/07/18 23:58:54;;;;;;;;;;;;;;;23.80;36.73;96210.03;10521347;28;1806;-68
